sensor_id;sensor_type;location;lat;lon;timestamp;pressure;altitude;pressure_sealevel;temperature;humidity
63901;BME280;50538;53.482;10.294;2022-08-21T00:07:53;101160.38;;;20.09;51.90
63901;BME280;50538;53.482;10.294;2022-08-21T00:17:54;101158.22;;;19.93;52.45
63901;BME280;50538;53.482;10.294;2022-08-21T00:27:56;101147.91;;;19.83;52.66
63901;BME280;50538;53.482;10.294;2022-08-21T00:37:56;101142.84;;;19.69;53.00
63901;BME280;50538;53.482;10.294;2022-08-21T00:47:57;101145.19;;;19.52;52.86
63901;BME280;50538;53.482;10.294;2022-08-21T00:57:59;101139.63;;;19.40;53.02
63901;BME280;50538;53.482;10.294;2022-08-21T01:08:00;101139.69;;;19.21;53.72
63901;BME280;50538;53.482;10.294;2022-08-21T01:18:03;101147.41;;;19.10;53.60
63901;BME280;50538;53.482;10.294;2022-08-21T01:28:11;101151.56;;;19.00;53.78
63901;BME280;50538;53.482;10.294;2022-08-21T01:38:12;101138.75;;;18.82;54.43
63901;BME280;50538;53.482;10.294;2022-08-21T01:48:12;101147.66;;;18.76;53.63
63901;BME280;50538;53.482;10.294;2022-08-21T01:58:13;101134.84;;;18.65;54.73
63901;BME280;50538;53.482;10.294;2022-08-21T02:08:13;101137.78;;;18.57;54.48
63901;BME280;50538;53.482;10.294;2022-08-21T02:18:13;101136.75;;;18.44;54.95
63901;BME280;50538;53.482;10.294;2022-08-21T02:28:14;101135.31;;;18.35;54.68
63901;BME280;50538;53.482;10.294;2022-08-21T02:38:19;101133.41;;;18.29;55.03
63901;BME280;50538;53.482;10.294;2022-08-21T02:48:23;101125.75;;;18.19;55.25
63901;BME280;50538;53.482;10.294;2022-08-21T02:58:28;101111.69;;;18.11;55.75
63901;BME280;50538;53.482;10.294;2022-08-21T03:08:28;101109.19;;;18.09;55.70
63901;BME280;50538;53.482;10.294;2022-08-21T03:18:29;101106.09;;;18.06;56.10
63901;BME280;50538;53.482;10.294;2022-08-21T03:28:30;101114.19;;;17.99;55.97
63901;BME280;50538;53.482;10.294;2022-08-21T03:38:32;101117.47;;;17.95;55.92
63901;BME280;50538;53.482;10.294;2022-08-21T03:48:34;101108.78;;;17.93;56.50
63901;BME280;50538;53.482;10.294;2022-08-21T03:58:35;101110.84;;;17.84;57.23
63901;BME280;50538;53.482;10.294;2022-08-21T04:08:35;101122.81;;;17.81;57.42
63901;BME280;50538;53.482;10.294;2022-08-21T04:18:36;101127.16;;;17.76;57.81
63901;BME280;50538;53.482;10.294;2022-08-21T04:28:36;101126.09;;;17.70;57.86
63901;BME280;50538;53.482;10.294;2022-08-21T04:38:37;101121.56;;;17.71;58.09
63901;BME280;50538;53.482;10.294;2022-08-21T04:48:39;101127.16;;;17.76;58.52
63901;BME280;50538;53.482;10.294;2022-08-21T04:58:41;101139.16;;;17.86;58.90
63901;BME280;50538;53.482;10.294;2022-08-21T05:08:45;101141.03;;;18.06;60.19
63901;BME280;50538;53.482;10.294;2022-08-21T05:18:48;101141.88;;;18.33;60.37
63901;BME280;50538;53.482;10.294;2022-08-21T05:28:48;101152.22;;;18.69;60.56
63901;BME280;50538;53.482;10.294;2022-08-21T05:38:49;101144.28;;;19.13;61.70
63901;BME280;50538;53.482;10.294;2022-08-21T05:48:52;101144.41;;;19.38;61.80
63901;BME280;50538;53.482;10.294;2022-08-21T05:58:52;101143.13;;;19.86;62.57
63901;BME280;50538;53.482;10.294;2022-08-21T06:08:53;101145.06;;;20.35;61.32
63901;BME280;50538;53.482;10.294;2022-08-21T06:18:54;101146.78;;;20.54;59.27
63901;BME280;50538;53.482;10.294;2022-08-21T06:28:57;101137.75;;;20.67;58.87
63901;BME280;50538;53.482;10.294;2022-08-21T06:38:58;101137.41;;;20.81;57.80
63901;BME280;50538;53.482;10.294;2022-08-21T06:48:58;101148.34;;;21.05;57.14
63901;BME280;50538;53.482;10.294;2022-08-21T06:58:59;101143.34;;;21.45;56.67
63901;BME280;50538;53.482;10.294;2022-08-21T07:08:59;101137.13;;;22.16;54.09
63901;BME280;50538;53.482;10.294;2022-08-21T07:19:01;101112.47;;;22.48;52.98
63901;BME280;50538;53.482;10.294;2022-08-21T07:29:03;101105.47;;;23.50;51.07
63901;BME280;50538;53.482;10.294;2022-08-21T07:39:03;101113.47;;;24.02;48.87
63901;BME280;50538;53.482;10.294;2022-08-21T07:49:04;101100.06;;;24.46;46.97
63901;BME280;50538;53.482;10.294;2022-08-21T07:59:04;101099.22;;;25.00;46.96
63901;BME280;50538;53.482;10.294;2022-08-21T08:09:05;101083.69;;;25.66;43.33
63901;BME280;50538;53.482;10.294;2022-08-21T08:19:05;101076.56;;;26.29;40.66
63901;BME280;50538;53.482;10.294;2022-08-21T08:29:05;101079.13;;;26.88;41.11
63901;BME280;50538;53.482;10.294;2022-08-21T08:39:06;101066.00;;;27.58;40.72
63901;BME280;50538;53.482;10.294;2022-08-21T08:49:12;101075.03;;;28.19;38.11
63901;BME280;50538;53.482;10.294;2022-08-21T08:59:19;101067.69;;;28.15;38.40
63901;BME280;50538;53.482;10.294;2022-08-21T09:30:10;101034.28;;;29.67;37.55
63901;BME280;50538;53.482;10.294;2022-08-21T09:50:32;101033.03;;;30.17;34.98
63901;BME280;50538;53.482;10.294;2022-08-21T10:00:35;101024.19;;;30.25;33.59
63901;BME280;50538;53.482;10.294;2022-08-21T10:10:37;101020.06;;;30.52;34.71
63901;BME280;50538;53.482;10.294;2022-08-21T10:20:44;101015.72;;;31.12;34.43
63901;BME280;50538;53.482;10.294;2022-08-21T10:40:57;101019.22;;;30.27;34.33
63901;BME280;50538;53.482;10.294;2022-08-21T10:51:23;101002.53;;;30.96;33.09
63901;BME280;50538;53.482;10.294;2022-08-21T11:01:44;101008.09;;;31.09;32.64
63901;BME280;50538;53.482;10.294;2022-08-21T11:11:54;100992.06;;;31.54;32.90
63901;BME280;50538;53.482;10.294;2022-08-21T11:22:05;101016.66;;;31.78;29.91
63901;BME280;50538;53.482;10.294;2022-08-21T12:03:25;101018.41;;;32.75;29.18
63901;BME280;50538;53.482;10.294;2022-08-21T12:13:29;101015.50;;;31.98;28.65
63901;BME280;50538;53.482;10.294;2022-08-21T12:23:48;101013.91;;;32.10;28.33
63901;BME280;50538;53.482;10.294;2022-08-21T12:33:58;101001.13;;;32.47;28.15
63901;BME280;50538;53.482;10.294;2022-08-21T12:44:10;100999.25;;;32.83;27.15
63901;BME280;50538;53.482;10.294;2022-08-21T12:54:24;101002.88;;;32.43;27.33
63901;BME280;50538;53.482;10.294;2022-08-21T13:04:35;101004.56;;;32.94;27.42
63901;BME280;50538;53.482;10.294;2022-08-21T13:14:40;100999.16;;;32.34;27.83
63901;BME280;50538;53.482;10.294;2022-08-21T13:24:41;100993.78;;;32.70;28.20
63901;BME280;50538;53.482;10.294;2022-08-21T13:34:41;100985.94;;;32.63;28.12
63901;BME280;50538;53.482;10.294;2022-08-21T13:44:45;100983.13;;;32.41;28.71
63901;BME280;50538;53.482;10.294;2022-08-21T13:54:54;100993.66;;;32.34;28.39
63901;BME280;50538;53.482;10.294;2022-08-21T14:04:58;100988.41;;;31.91;28.73
63901;BME280;50538;53.482;10.294;2022-08-21T14:15:03;100977.19;;;32.61;28.68
63901;BME280;50538;53.482;10.294;2022-08-21T14:25:08;100991.34;;;32.54;27.86
63901;BME280;50538;53.482;10.294;2022-08-21T14:35:10;100981.03;;;32.60;27.90
63901;BME280;50538;53.482;10.294;2022-08-21T14:45:21;100968.31;;;33.14;27.92
63901;BME280;50538;53.482;10.294;2022-08-21T14:55:23;100979.28;;;33.28;26.84
63901;BME280;50538;53.482;10.294;2022-08-21T15:05:23;100981.28;;;33.80;25.46
63901;BME280;50538;53.482;10.294;2022-08-21T15:15:24;100975.84;;;34.29;25.27
63901;BME280;50538;53.482;10.294;2022-08-21T15:25:24;100979.31;;;34.43;25.18
63901;BME280;50538;53.482;10.294;2022-08-21T15:35:24;100970.47;;;34.63;25.23
63901;BME280;50538;53.482;10.294;2022-08-21T15:45:25;100972.25;;;34.59;24.50
63901;BME280;50538;53.482;10.294;2022-08-21T15:55:26;100968.69;;;34.85;25.39
63901;BME280;50538;53.482;10.294;2022-08-21T16:05:26;100969.41;;;35.25;24.51
63901;BME280;50538;53.482;10.294;2022-08-21T16:15:27;100966.59;;;36.15;23.96
63901;BME280;50538;53.482;10.294;2022-08-21T16:25:27;100972.56;;;37.26;22.47
63901;BME280;50538;53.482;10.294;2022-08-21T16:35:28;100966.47;;;38.11;21.32
63901;BME280;50538;53.482;10.294;2022-08-21T16:45:28;100965.88;;;38.66;20.58
63901;BME280;50538;53.482;10.294;2022-08-21T16:55:29;100961.66;;;38.96;20.22
63901;BME280;50538;53.482;10.294;2022-08-21T17:05:30;100956.44;;;38.43;21.50
63901;BME280;50538;53.482;10.294;2022-08-21T17:15:33;100961.16;;;38.66;21.38
63901;BME280;50538;53.482;10.294;2022-08-21T17:25:36;100967.97;;;38.57;21.32
63901;BME280;50538;53.482;10.294;2022-08-21T17:35:39;100963.81;;;38.02;23.25
63901;BME280;50538;53.482;10.294;2022-08-21T17:45:41;100980.75;;;37.22;24.77
63901;BME280;50538;53.482;10.294;2022-08-21T17:55:42;100983.19;;;35.51;25.86
63901;BME280;50538;53.482;10.294;2022-08-21T18:05:47;100988.47;;;33.68;28.66
63901;BME280;50538;53.482;10.294;2022-08-21T18:15:49;101005.78;;;32.33;31.20
63901;BME280;50538;53.482;10.294;2022-08-21T18:25:54;101005.72;;;31.40;33.97
63901;BME280;50538;53.482;10.294;2022-08-21T18:35:55;101019.75;;;30.53;35.25
63901;BME280;50538;53.482;10.294;2022-08-21T18:45:56;101038.97;;;29.61;35.49
63901;BME280;50538;53.482;10.294;2022-08-21T18:55:57;101051.13;;;28.91;36.91
63901;BME280;50538;53.482;10.294;2022-08-21T19:05:58;101055.38;;;28.22;37.57
63901;BME280;50538;53.482;10.294;2022-08-21T19:15:59;101066.81;;;27.58;39.05
63901;BME280;50538;53.482;10.294;2022-08-21T19:26:05;101073.00;;;27.28;40.02
63901;BME280;50538;53.482;10.294;2022-08-21T19:36:08;101078.63;;;26.96;40.48
63901;BME280;50538;53.482;10.294;2022-08-21T19:46:10;101080.59;;;26.54;42.37
63901;BME280;50538;53.482;10.294;2022-08-21T19:56:24;101086.28;;;26.15;43.08
63901;BME280;50538;53.482;10.294;2022-08-21T20:06:25;101097.47;;;25.87;44.21
63901;BME280;50538;53.482;10.294;2022-08-21T20:16:26;101103.44;;;25.62;44.85
63901;BME280;50538;53.482;10.294;2022-08-21T20:26:28;101111.09;;;25.38;45.06
63901;BME280;50538;53.482;10.294;2022-08-21T20:36:28;101112.00;;;25.22;46.27
63901;BME280;50538;53.482;10.294;2022-08-21T20:46:30;101119.94;;;25.06;46.10
63901;BME280;50538;53.482;10.294;2022-08-21T21:06:32;101118.63;;;24.70;48.03
63901;BME280;50538;53.482;10.294;2022-08-21T21:16:42;101120.63;;;24.58;48.60
63901;BME280;50538;53.482;10.294;2022-08-21T21:26:51;101123.19;;;24.48;48.64
63901;BME280;50538;53.482;10.294;2022-08-21T21:36:56;101123.34;;;24.41;49.28
63901;BME280;50538;53.482;10.294;2022-08-21T21:47:22;101136.88;;;24.36;48.94
63901;BME280;50538;53.482;10.294;2022-08-21T22:08:02;101146.34;;;24.05;50.20
63901;BME280;50538;53.482;10.294;2022-08-21T22:18:16;101149.63;;;24.07;51.93
63901;BME280;50538;53.482;10.294;2022-08-21T22:28:22;101147.00;;;24.13;50.81
63901;BME280;50538;53.482;10.294;2022-08-21T22:48:35;101156.47;;;24.10;51.09
63901;BME280;50538;53.482;10.294;2022-08-21T22:58:54;101153.41;;;24.06;51.24
63901;BME280;50538;53.482;10.294;2022-08-21T23:08:55;101161.13;;;23.98;50.83
63901;BME280;50538;53.482;10.294;2022-08-21T23:19:19;101159.97;;;23.94;51.96
63901;BME280;50538;53.482;10.294;2022-08-21T23:29:48;101164.66;;;23.98;51.92
63901;BME280;50538;53.482;10.294;2022-08-21T23:39:57;101157.84;;;23.96;51.41
63901;BME280;50538;53.482;10.294;2022-08-21T23:50:06;101156.91;;;23.90;51.82
